createdAt,value
2018-02-22T00:00:24.297Z,991.47
2018-02-22T00:01:31.119Z,991.48
2018-02-22T00:02:38.188Z,991.47
2018-02-22T00:03:44.910Z,991.59
2018-02-22T00:04:51.684Z,991.41
2018-02-22T00:05:58.634Z,991.57
2018-02-22T00:07:05.370Z,991.51
2018-02-22T00:08:12.116Z,991.55
2018-02-22T00:09:18.835Z,991.61
2018-02-22T00:10:25.624Z,991.50
2018-02-22T00:11:32.458Z,991.56
2018-02-22T00:12:39.193Z,991.55
2018-02-22T00:13:45.927Z,991.55
2018-02-22T00:14:52.666Z,991.55
2018-02-22T00:15:59.415Z,991.57
2018-02-22T00:17:06.227Z,991.58
2018-02-22T00:18:12.964Z,991.46
2018-02-22T00:19:19.727Z,991.60
2018-02-22T00:20:26.481Z,991.52
2018-02-22T00:21:33.232Z,991.50
2018-02-22T00:22:40.011Z,991.47
2018-02-22T00:23:46.759Z,991.51
2018-02-22T00:24:53.504Z,991.54
2018-02-22T00:26:00.211Z,991.43
2018-02-22T00:27:06.999Z,991.47
2018-02-22T00:28:13.791Z,991.46
2018-02-22T00:29:20.520Z,991.50
2018-02-22T00:30:27.260Z,991.47
2018-02-22T00:31:34.022Z,991.40
2018-02-22T00:32:40.788Z,991.37
2018-02-22T00:33:47.586Z,991.43
2018-02-22T00:34:54.322Z,991.50
2018-02-22T00:36:01.146Z,991.48
2018-02-22T00:37:08.025Z,991.41
2018-02-22T00:38:14.750Z,991.47
2018-02-22T00:39:21.485Z,991.47
2018-02-22T00:40:28.228Z,991.45
2018-02-22T00:41:34.960Z,991.44
2018-02-22T00:42:41.679Z,991.44
2018-02-22T00:43:48.474Z,991.44
2018-02-22T00:44:55.186Z,991.48
2018-02-22T00:46:01.904Z,991.46
2018-02-22T00:47:08.668Z,991.45
2018-02-22T00:48:15.398Z,991.49
2018-02-22T00:49:22.227Z,991.42
2018-02-22T00:50:28.925Z,991.46
2018-02-22T00:51:35.723Z,991.38
2018-02-22T00:52:42.451Z,991.53
2018-02-22T00:53:49.138Z,991.47
2018-02-22T00:54:56.010Z,991.43
2018-02-22T00:56:02.696Z,991.44
2018-02-22T00:57:09.532Z,991.49
2018-02-22T00:58:16.276Z,991.43
2018-02-22T00:59:23.274Z,991.46
2018-02-22T01:00:29.979Z,991.41
2018-02-22T01:01:36.820Z,991.45
2018-02-22T01:02:43.685Z,991.45
2018-02-22T01:03:50.374Z,991.47
2018-02-22T01:04:57.106Z,991.47
2018-02-22T01:06:03.791Z,991.43
2018-02-22T01:07:10.520Z,991.39
2018-02-22T01:08:17.236Z,991.38
2018-02-22T01:09:23.991Z,991.38
2018-02-22T01:10:30.676Z,991.37
2018-02-22T01:11:37.383Z,991.36
2018-02-22T01:12:44.090Z,991.42
2018-02-22T01:13:50.808Z,991.40
2018-02-22T01:14:57.568Z,991.43
2018-02-22T01:16:04.339Z,991.34
2018-02-22T01:17:11.077Z,991.41
2018-02-22T01:18:17.783Z,991.40
2018-02-22T01:19:24.464Z,991.28
2018-02-22T01:20:31.203Z,991.36
2018-02-22T01:21:37.919Z,991.28
2018-02-22T01:22:44.630Z,991.40
2018-02-22T01:23:51.427Z,991.28
2018-02-22T01:24:58.147Z,991.34
2018-02-22T01:26:04.890Z,991.36
2018-02-22T01:27:11.621Z,991.38
2018-02-22T01:28:18.309Z,991.42
2018-02-22T01:29:24.977Z,991.36
2018-02-22T01:30:31.667Z,991.45
2018-02-22T01:31:38.480Z,991.31
2018-02-22T01:32:45.172Z,991.35
2018-02-22T01:33:52.099Z,991.37
2018-02-22T01:34:58.925Z,991.34
2018-02-22T01:36:05.623Z,991.19
2018-02-22T01:37:12.608Z,991.31
2018-02-22T01:38:19.397Z,991.31
2018-02-22T01:39:26.087Z,991.26
2018-02-22T01:40:32.770Z,991.23
2018-02-22T01:41:39.492Z,991.29
2018-02-22T01:42:46.199Z,991.21
2018-02-22T01:43:52.991Z,991.27
2018-02-22T01:44:59.681Z,991.16
2018-02-22T01:46:06.371Z,991.26
2018-02-22T01:47:13.213Z,991.14
2018-02-22T01:48:19.992Z,991.15
2018-02-22T01:49:26.764Z,991.14
2018-02-22T01:50:33.656Z,991.13
2018-02-22T01:51:40.400Z,991.21
2018-02-22T01:52:47.148Z,991.26
2018-02-22T01:53:53.903Z,991.20
2018-02-22T01:55:00.831Z,991.20
2018-02-22T01:56:07.507Z,991.17
2018-02-22T01:57:14.252Z,991.25
2018-02-22T01:58:20.941Z,991.20
2018-02-22T01:59:27.647Z,991.22
2018-02-22T02:00:34.343Z,991.22
2018-02-22T02:01:41.044Z,991.26
2018-02-22T02:02:47.874Z,991.23
2018-02-22T02:03:54.571Z,991.18
2018-02-22T02:05:01.279Z,991.14
2018-02-22T02:06:07.979Z,991.17
2018-02-22T02:07:14.718Z,991.13
2018-02-22T02:08:21.405Z,991.25
2018-02-22T02:09:28.115Z,991.07
2018-02-22T02:10:34.876Z,991.08
2018-02-22T02:11:41.680Z,991.09
2018-02-22T02:12:48.384Z,991.13
2018-02-22T02:13:55.106Z,991.08
2018-02-22T02:15:01.844Z,991.07
2018-02-22T02:16:08.680Z,991.02
2018-02-22T02:17:15.476Z,991.01
2018-02-22T02:18:22.159Z,991.04
2018-02-22T02:19:28.867Z,991.08
2018-02-22T02:20:35.575Z,990.93
2018-02-22T02:21:42.299Z,990.96
2018-02-22T02:22:49.008Z,990.86
2018-02-22T02:23:55.724Z,990.98
2018-02-22T02:25:02.411Z,990.95
2018-02-22T02:26:09.244Z,990.93
2018-02-22T02:27:15.939Z,990.92
2018-02-22T02:28:22.915Z,990.92
2018-02-22T02:29:29.712Z,990.94
2018-02-22T02:30:36.399Z,990.94
2018-02-22T02:31:43.102Z,990.96
2018-02-22T02:32:49.811Z,991.01
2018-02-22T02:33:56.619Z,990.86
2018-02-22T02:35:03.325Z,990.99
2018-02-22T02:36:10.148Z,990.93
2018-02-22T02:37:16.891Z,990.97
2018-02-22T02:38:23.608Z,990.91
2018-02-22T02:39:30.351Z,990.90
2018-02-22T02:40:37.057Z,990.88
2018-02-22T02:41:43.967Z,990.88
2018-02-22T02:42:50.657Z,990.88
2018-02-22T02:43:57.369Z,990.86
2018-02-22T02:45:04.067Z,990.82
2018-02-22T02:46:10.779Z,990.75
2018-02-22T02:47:17.513Z,990.76
2018-02-22T02:48:24.245Z,990.73
2018-02-22T02:49:30.986Z,990.74
2018-02-22T02:50:37.682Z,990.74
2018-02-22T02:51:44.408Z,990.76
2018-02-22T02:52:51.147Z,990.70
2018-02-22T02:53:57.883Z,990.81
2018-02-22T02:55:04.713Z,990.69
2018-02-22T02:56:11.406Z,990.69
2018-02-22T02:57:18.260Z,990.78
2018-02-22T02:58:25.055Z,990.77
2018-02-22T02:59:31.787Z,990.72
2018-02-22T03:00:38.472Z,990.74
2018-02-22T03:01:45.191Z,990.72
2018-02-22T03:02:51.906Z,990.71
2018-02-22T03:03:58.624Z,990.73
2018-02-22T03:05:05.341Z,990.72
2018-02-22T03:06:12.137Z,990.65
2018-02-22T03:07:18.870Z,990.71
2018-02-22T03:08:25.547Z,990.72
2018-02-22T03:09:32.422Z,990.72
2018-02-22T03:10:39.215Z,990.65
2018-02-22T03:11:45.944Z,990.69
2018-02-22T03:12:52.675Z,990.64
2018-02-22T03:13:59.376Z,990.65
2018-02-22T03:15:06.098Z,990.56
2018-02-22T03:16:12.809Z,990.63
2018-02-22T03:17:19.588Z,990.67
2018-02-22T03:18:26.274Z,990.61
2018-02-22T03:19:33.017Z,990.67
2018-02-22T03:20:39.723Z,990.60
2018-02-22T03:21:46.475Z,990.63
2018-02-22T03:22:53.280Z,990.62
2018-02-22T03:23:59.992Z,990.61
2018-02-22T03:25:06.717Z,990.54
2018-02-22T03:26:13.467Z,990.63
2018-02-22T03:27:20.184Z,990.68
2018-02-22T03:28:27.023Z,990.66
2018-02-22T03:29:33.748Z,990.65
2018-02-22T03:30:40.460Z,990.58
2018-02-22T03:31:47.163Z,990.64
2018-02-22T03:32:53.891Z,990.64
2018-02-22T03:34:00.590Z,990.59
2018-02-22T03:35:07.288Z,990.64
2018-02-22T03:36:13.960Z,990.73
2018-02-22T03:37:20.664Z,990.63
2018-02-22T03:38:27.532Z,990.62
2018-02-22T03:39:34.253Z,990.57
2018-02-22T03:40:41.020Z,990.59
2018-02-22T03:41:47.714Z,990.62
2018-02-22T03:42:54.427Z,990.67
2018-02-22T03:44:01.259Z,990.56
2018-02-22T03:45:07.957Z,990.58
2018-02-22T03:46:14.671Z,990.54
2018-02-22T03:47:21.392Z,990.61
2018-02-22T03:48:28.067Z,990.55
2018-02-22T03:49:34.801Z,990.49
2018-02-22T03:50:41.468Z,990.48
2018-02-22T03:51:48.173Z,990.55
2018-02-22T03:52:54.922Z,990.48
2018-02-22T03:54:01.653Z,990.57
2018-02-22T03:55:08.327Z,990.58
2018-02-22T03:56:15.004Z,990.60
2018-02-22T03:57:21.737Z,990.56
2018-02-22T03:58:28.434Z,990.52
2018-02-22T03:59:35.161Z,990.52
2018-02-22T04:00:41.856Z,990.63
2018-02-22T04:01:48.585Z,990.57
2018-02-22T04:02:55.768Z,990.58
2018-02-22T04:04:02.555Z,990.53
2018-02-22T04:05:09.357Z,990.58
2018-02-22T04:06:16.095Z,990.56
2018-02-22T04:07:22.818Z,990.55
2018-02-22T04:08:29.622Z,990.62
2018-02-22T04:09:36.345Z,990.62
2018-02-22T04:10:43.044Z,990.51
2018-02-22T04:11:50.215Z,990.58
2018-02-22T04:12:56.915Z,990.61
2018-02-22T04:14:03.620Z,990.59
2018-02-22T04:15:10.381Z,990.58
2018-02-22T04:16:17.081Z,990.54
2018-02-22T04:17:23.929Z,990.52
2018-02-22T04:18:30.672Z,990.57
2018-02-22T04:19:37.360Z,990.58
2018-02-22T04:20:44.124Z,990.60
2018-02-22T04:21:50.871Z,990.53
2018-02-22T04:22:57.729Z,990.54
2018-02-22T04:24:04.459Z,990.55
2018-02-22T04:25:11.147Z,990.59
2018-02-22T04:26:17.897Z,990.52
2018-02-22T04:27:24.619Z,990.54
2018-02-22T04:28:31.305Z,990.54
2018-02-22T04:29:37.981Z,990.50
2018-02-22T04:30:44.805Z,990.50
2018-02-22T04:31:51.508Z,990.57
2018-02-22T04:32:58.256Z,990.52
2018-02-22T04:34:04.991Z,990.56
2018-02-22T04:35:11.700Z,990.57
2018-02-22T04:36:18.423Z,990.48
2018-02-22T04:37:25.251Z,990.59
2018-02-22T04:38:32.049Z,990.53
2018-02-22T04:39:38.765Z,990.53
2018-02-22T04:40:45.558Z,990.53
2018-02-22T04:41:52.391Z,990.61
2018-02-22T04:42:59.109Z,990.56
2018-02-22T04:44:05.816Z,990.56
2018-02-22T04:45:12.542Z,990.64
2018-02-22T04:46:19.237Z,990.59
2018-02-22T04:47:25.987Z,990.56
2018-02-22T04:48:32.849Z,990.61
2018-02-22T04:49:39.551Z,990.62
2018-02-22T04:50:46.244Z,990.52
2018-02-22T04:51:52.936Z,990.58
2018-02-22T04:52:59.672Z,990.60
2018-02-22T04:54:06.373Z,990.73
2018-02-22T04:55:13.131Z,990.51
2018-02-22T04:56:19.949Z,990.60
2018-02-22T04:57:26.697Z,990.69
2018-02-22T04:58:33.448Z,990.63
2018-02-22T04:59:40.149Z,990.60
2018-02-22T05:00:46.869Z,990.63
2018-02-22T05:01:53.673Z,990.69
2018-02-22T05:03:00.396Z,990.72
2018-02-22T05:04:07.116Z,990.68
2018-02-22T05:05:13.812Z,990.69
2018-02-22T05:06:20.515Z,990.70
2018-02-22T05:07:27.576Z,990.63
2018-02-22T05:08:34.270Z,990.62
2018-02-22T05:09:40.991Z,990.65
2018-02-22T05:10:47.697Z,990.68
2018-02-22T05:11:54.388Z,990.63
2018-02-22T05:13:01.385Z,990.62
2018-02-22T05:14:08.149Z,990.64
2018-02-22T05:15:14.873Z,990.58
2018-02-22T05:16:21.568Z,990.63
2018-02-22T05:17:28.375Z,990.60
2018-02-22T05:18:35.304Z,990.55
2018-02-22T05:19:41.992Z,990.56
2018-02-22T05:20:48.820Z,990.60
2018-02-22T05:21:55.719Z,990.58
2018-02-22T05:23:02.423Z,990.54
2018-02-22T05:24:09.139Z,990.66
2018-02-22T05:25:15.915Z,990.53
2018-02-22T05:26:22.611Z,990.65
2018-02-22T05:27:29.355Z,990.60
2018-02-22T05:28:36.065Z,990.63
2018-02-22T05:29:43.053Z,990.70
2018-02-22T05:30:49.761Z,990.64
2018-02-22T05:31:56.455Z,990.59
2018-02-22T05:33:03.224Z,990.62
2018-02-22T05:34:09.918Z,990.68
2018-02-22T05:35:16.730Z,990.66
2018-02-22T05:36:23.440Z,990.68
2018-02-22T05:37:30.180Z,990.66
2018-02-22T05:38:36.948Z,990.68
2018-02-22T05:39:43.730Z,990.72
2018-02-22T05:40:50.544Z,990.72
2018-02-22T05:41:57.235Z,990.66
2018-02-22T05:43:03.967Z,990.72
2018-02-22T05:44:10.705Z,990.67
2018-02-22T05:45:17.410Z,990.71
2018-02-22T05:46:24.116Z,990.71
2018-02-22T05:47:30.835Z,990.72
2018-02-22T05:48:37.665Z,990.69
2018-02-22T05:49:44.436Z,990.66
2018-02-22T05:50:51.135Z,990.71
2018-02-22T05:51:57.854Z,990.63
2018-02-22T05:53:04.579Z,990.66
2018-02-22T05:54:11.414Z,990.60
2018-02-22T05:55:18.155Z,990.62
2018-02-22T05:56:24.868Z,990.67
2018-02-22T05:57:31.566Z,990.66
2018-02-22T05:58:38.287Z,990.70
2018-02-22T05:59:45.108Z,990.64
2018-02-22T06:00:51.841Z,990.66
2018-02-22T06:01:58.549Z,990.74
2018-02-22T06:03:05.388Z,990.71
2018-02-22T06:04:12.107Z,990.78
2018-02-22T06:05:18.816Z,990.69
2018-02-22T06:06:25.620Z,990.72
2018-02-22T06:07:32.319Z,990.69
2018-02-22T06:08:39.035Z,990.58
2018-02-22T06:09:45.764Z,990.58
2018-02-22T06:10:52.472Z,990.68
2018-02-22T06:11:59.167Z,990.67
2018-02-22T06:13:05.860Z,990.67
2018-02-22T06:14:12.952Z,990.66
2018-02-22T06:15:19.707Z,990.66
2018-02-22T06:16:26.493Z,990.65
2018-02-22T06:17:33.195Z,990.63
2018-02-22T06:18:39.903Z,990.61
2018-02-22T06:19:46.697Z,990.71
2018-02-22T06:20:53.460Z,990.67
2018-02-22T06:22:00.241Z,990.66
2018-02-22T06:23:07.016Z,990.68
2018-02-22T06:24:13.732Z,990.66
2018-02-22T06:25:20.466Z,990.64
2018-02-22T06:26:27.167Z,990.63
2018-02-22T06:27:33.977Z,990.65
2018-02-22T06:28:40.704Z,990.63
2018-02-22T06:29:47.432Z,990.74
2018-02-22T06:30:54.155Z,990.75
2018-02-22T06:32:00.976Z,990.65
2018-02-22T06:33:07.699Z,990.74
2018-02-22T06:34:14.520Z,990.63
2018-02-22T06:35:21.311Z,990.72
2018-02-22T06:36:28.088Z,990.79
2018-02-22T06:37:34.802Z,990.83
2018-02-22T06:38:41.488Z,990.67
2018-02-22T06:39:48.196Z,990.71
2018-02-22T06:40:55.033Z,990.67
2018-02-22T06:42:01.843Z,990.77
2018-02-22T06:43:08.577Z,990.71
2018-02-22T06:44:15.727Z,990.74
2018-02-22T06:45:22.448Z,990.69
2018-02-22T06:46:29.143Z,990.70
2018-02-22T06:47:35.971Z,990.73
2018-02-22T06:48:42.694Z,990.74
2018-02-22T06:49:49.387Z,990.76
2018-02-22T06:50:56.132Z,990.75
2018-02-22T06:52:02.858Z,990.72
2018-02-22T06:53:09.605Z,990.71
2018-02-22T06:54:16.404Z,990.60
2018-02-22T06:55:23.104Z,990.67
2018-02-22T06:56:29.809Z,990.70
2018-02-22T06:57:36.528Z,990.77
2018-02-22T06:58:43.359Z,990.61
2018-02-22T06:59:50.035Z,990.70
2018-02-22T07:00:56.868Z,990.70
2018-02-22T07:02:03.560Z,990.79
2018-02-22T07:03:10.280Z,990.70
2018-02-22T07:04:17.039Z,990.80
2018-02-22T07:05:23.735Z,990.75
2018-02-22T07:06:30.468Z,990.85
2018-02-22T07:07:37.301Z,990.71
2018-02-22T07:08:44.092Z,990.80
2018-02-22T07:09:50.861Z,990.72
2018-02-22T07:10:57.852Z,990.78
2018-02-22T07:12:04.576Z,990.77
2018-02-22T07:13:11.301Z,990.72
2018-02-22T07:14:18.134Z,990.78
2018-02-22T07:15:24.911Z,990.72
2018-02-22T07:16:31.600Z,990.72
2018-02-22T07:17:38.302Z,990.70
2018-02-22T07:18:45.035Z,990.71
2018-02-22T07:19:51.776Z,990.72
2018-02-22T07:20:58.483Z,990.75
2018-02-22T07:22:05.329Z,990.87
2018-02-22T07:23:16.789Z,990.75
2018-02-22T07:24:18.844Z,990.85
2018-02-22T07:25:25.608Z,990.82
2018-02-22T07:26:32.324Z,990.77
2018-02-22T07:27:39.132Z,990.85
2018-02-22T07:28:45.856Z,990.84
2018-02-22T07:29:52.587Z,990.79
2018-02-22T07:30:59.315Z,990.88
2018-02-22T07:32:06.236Z,990.85
2018-02-22T07:33:12.922Z,990.87
2018-02-22T07:34:19.645Z,990.89
2018-02-22T07:35:26.409Z,990.81
2018-02-22T07:36:33.181Z,990.80
2018-02-22T07:37:39.872Z,990.87
2018-02-22T07:38:46.676Z,990.79
2018-02-22T07:39:53.675Z,990.81
2018-02-22T07:41:00.612Z,990.90
2018-02-22T07:42:07.355Z,990.82
2018-02-22T07:43:14.081Z,990.90
2018-02-22T07:44:20.831Z,990.81
2018-02-22T07:45:27.625Z,990.92
2018-02-22T07:46:34.353Z,990.87
2018-02-22T07:47:41.197Z,990.85
2018-02-22T07:48:47.988Z,990.86
2018-02-22T07:49:54.761Z,990.92
2018-02-22T07:51:01.456Z,990.93
2018-02-22T07:52:08.188Z,990.87
2018-02-22T07:53:14.940Z,990.95
2018-02-22T07:54:21.636Z,990.94
2018-02-22T07:55:28.326Z,990.95
2018-02-22T07:56:35.160Z,990.97
2018-02-22T07:57:41.899Z,990.97
2018-02-22T07:58:48.600Z,990.97
2018-02-22T07:59:55.284Z,990.95
2018-02-22T08:01:02.001Z,990.95
2018-02-22T08:02:08.732Z,991.11
2018-02-22T08:03:15.565Z,991.01
2018-02-22T08:04:22.392Z,991.00
2018-02-22T08:05:29.164Z,990.99
2018-02-22T08:06:35.865Z,991.02
2018-02-22T08:07:42.647Z,991.01
2018-02-22T08:08:49.344Z,991.14
2018-02-22T08:09:56.048Z,991.01
2018-02-22T08:11:02.744Z,991.02
2018-02-22T08:12:09.568Z,991.03
2018-02-22T08:13:16.379Z,990.98
2018-02-22T08:14:23.168Z,991.05
2018-02-22T08:15:29.887Z,991.03
2018-02-22T08:16:36.597Z,990.99
2018-02-22T08:17:43.350Z,991.07
2018-02-22T08:18:50.127Z,991.15
2018-02-22T08:19:56.816Z,990.98
2018-02-22T08:21:03.536Z,991.07
2018-02-22T08:22:10.225Z,991.10
2018-02-22T08:23:16.992Z,991.13
2018-02-22T08:24:23.696Z,991.04
2018-02-22T08:25:30.384Z,991.09
2018-02-22T08:26:37.171Z,991.09
2018-02-22T08:27:43.865Z,991.09
2018-02-22T08:28:50.553Z,991.11
2018-02-22T08:29:57.260Z,991.05
2018-02-22T08:31:03.990Z,991.09
2018-02-22T08:32:10.698Z,991.06
2018-02-22T08:33:17.389Z,991.04
2018-02-22T08:34:24.248Z,991.07
2018-02-22T08:35:30.935Z,991.01
2018-02-22T08:36:37.657Z,990.96
2018-02-22T08:37:44.578Z,990.98
2018-02-22T08:38:51.321Z,991.01
2018-02-22T08:39:58.057Z,990.94
2018-02-22T08:41:04.769Z,990.91
2018-02-22T08:42:11.568Z,990.93
2018-02-22T08:43:18.407Z,991.02
2018-02-22T08:44:25.173Z,991.05
2018-02-22T08:45:31.912Z,990.91
2018-02-22T08:46:38.600Z,990.98
2018-02-22T08:47:45.454Z,990.99
2018-02-22T08:48:52.172Z,990.95
2018-02-22T08:49:58.986Z,990.88
2018-02-22T08:51:05.748Z,990.92
2018-02-22T08:52:12.514Z,990.93
2018-02-22T08:53:19.236Z,990.78
2018-02-22T08:54:26.020Z,990.91
2018-02-22T08:55:32.854Z,990.81
2018-02-22T08:56:39.611Z,990.82
2018-02-22T08:57:46.331Z,990.81
2018-02-22T08:58:53.082Z,990.82
2018-02-22T08:59:59.851Z,990.88
2018-02-22T09:01:06.701Z,990.82
2018-02-22T09:02:13.431Z,990.84
2018-02-22T09:03:20.209Z,990.92
2018-02-22T09:04:26.931Z,990.81
2018-02-22T09:05:34.015Z,990.89
2018-02-22T09:06:40.743Z,990.94
2018-02-22T09:07:47.882Z,990.84
2018-02-22T09:08:54.747Z,990.99
2018-02-22T09:10:01.543Z,990.94
2018-02-22T09:11:08.379Z,990.82
2018-02-22T09:12:15.209Z,990.97
2018-02-22T09:13:22.040Z,990.86
2018-02-22T09:14:28.780Z,990.84
2018-02-22T09:15:35.467Z,990.91
2018-02-22T09:16:42.203Z,991.10
2018-02-22T09:17:48.945Z,990.91
2018-02-22T09:18:55.644Z,990.97
2018-02-22T09:20:02.361Z,990.95
2018-02-22T09:21:09.092Z,990.85
2018-02-22T09:22:15.836Z,990.87
2018-02-22T09:23:22.601Z,990.89
2018-02-22T09:24:29.378Z,990.86
2018-02-22T09:25:36.098Z,990.85
2018-02-22T09:26:42.859Z,990.94
2018-02-22T09:27:49.558Z,991.01
2018-02-22T09:28:56.260Z,991.08
2018-02-22T09:30:03.044Z,990.99
2018-02-22T09:31:09.855Z,990.97
2018-02-22T09:32:16.576Z,991.00
2018-02-22T09:33:23.279Z,991.05
2018-02-22T09:34:30.013Z,990.97
2018-02-22T09:35:36.771Z,990.94
2018-02-22T09:36:43.495Z,990.87
2018-02-22T09:37:50.236Z,990.89
2018-02-22T09:38:56.976Z,990.82
2018-02-22T09:40:03.771Z,990.78
2018-02-22T09:41:10.489Z,990.81
2018-02-22T09:42:17.276Z,990.76
2018-02-22T09:43:24.049Z,990.92
2018-02-22T09:44:30.756Z,990.78
2018-02-22T09:45:37.962Z,990.71
2018-02-22T09:46:44.297Z,990.88
2018-02-22T09:47:51.224Z,990.78
2018-02-22T09:48:58.168Z,990.80
2018-02-22T09:50:04.928Z,990.78
2018-02-22T09:51:11.722Z,990.71
2018-02-22T09:52:18.531Z,990.78
2018-02-22T09:53:25.308Z,990.81
2018-02-22T09:54:32.146Z,990.81
2018-02-22T09:55:38.858Z,990.73
2018-02-22T09:56:45.539Z,990.77
2018-02-22T09:57:52.272Z,990.71
2018-02-22T09:58:59.014Z,990.81
2018-02-22T10:00:05.740Z,990.78
2018-02-22T10:01:12.563Z,990.86
2018-02-22T10:02:19.578Z,990.79
2018-02-22T10:03:26.329Z,990.67
2018-02-22T10:04:33.081Z,990.75
2018-02-22T10:05:40.180Z,990.77
2018-02-22T10:06:46.967Z,990.87
2018-02-22T10:07:53.719Z,990.82
2018-02-22T10:09:00.435Z,990.86
2018-02-22T10:10:07.371Z,990.83
2018-02-22T10:11:14.091Z,990.81
2018-02-22T10:12:20.795Z,990.94
2018-02-22T10:13:27.607Z,990.80
2018-02-22T10:14:34.474Z,990.79
2018-02-22T10:15:41.201Z,990.84
2018-02-22T10:16:47.937Z,990.76
2018-02-22T10:17:54.724Z,990.80
2018-02-22T10:19:01.416Z,990.91
2018-02-22T10:20:08.284Z,990.86
2018-02-22T10:21:15.010Z,990.88
2018-02-22T10:22:21.789Z,990.84
2018-02-22T10:23:28.490Z,990.80
2018-02-22T10:24:36.155Z,990.73
2018-02-22T10:25:41.936Z,990.78
2018-02-22T10:26:48.628Z,990.73
2018-02-22T10:27:55.351Z,990.81
2018-02-22T10:29:02.119Z,990.87
2018-02-22T10:30:08.868Z,990.83
2018-02-22T10:31:15.655Z,990.83
2018-02-22T10:32:22.351Z,990.78
2018-02-22T10:33:29.187Z,990.76
2018-02-22T10:34:35.934Z,990.75
2018-02-22T10:35:42.692Z,990.85
2018-02-22T10:36:49.442Z,990.76
2018-02-22T10:37:56.216Z,990.81
2018-02-22T10:39:02.989Z,990.84
2018-02-22T10:40:09.733Z,990.81
2018-02-22T10:41:16.455Z,990.79
2018-02-22T10:42:23.292Z,990.78
2018-02-22T10:43:30.039Z,990.87
2018-02-22T10:44:36.796Z,990.80
2018-02-22T10:45:44.227Z,990.78
2018-02-22T10:46:51.242Z,990.82
2018-02-22T10:47:58.311Z,990.77
2018-02-22T10:49:04.919Z,990.76
2018-02-22T10:50:11.437Z,990.77
2018-02-22T10:51:18.562Z,990.76
2018-02-22T10:52:25.420Z,990.72
2018-02-22T10:53:32.196Z,990.70
2018-02-22T10:54:39.888Z,990.75
2018-02-22T10:55:45.657Z,990.66
2018-02-22T10:56:52.388Z,990.77
2018-02-22T10:57:59.099Z,990.65
2018-02-22T10:59:05.881Z,990.77
2018-02-22T11:00:12.578Z,990.69
2018-02-22T11:01:19.378Z,990.60
2018-02-22T11:02:26.160Z,990.67
2018-02-22T11:03:33.000Z,990.67
2018-02-22T11:04:39.805Z,990.70
2018-02-22T11:05:46.541Z,990.62
2018-02-22T11:06:53.339Z,990.59
2018-02-22T11:08:00.096Z,990.65
2018-02-22T11:09:06.829Z,990.80
2018-02-22T11:10:13.864Z,990.58
2018-02-22T11:11:20.600Z,990.61
2018-02-22T11:12:27.337Z,990.65
2018-02-22T11:13:34.143Z,990.54
2018-02-22T11:14:40.920Z,990.60
2018-02-22T11:15:47.612Z,990.49
2018-02-22T11:16:54.360Z,990.61
2018-02-22T11:18:01.240Z,990.43
2018-02-22T11:19:08.107Z,990.53
2018-02-22T11:20:14.958Z,990.38
2018-02-22T11:21:21.672Z,990.44
2018-02-22T11:22:28.448Z,990.46
2018-02-22T11:23:35.193Z,990.57
2018-02-22T11:24:41.936Z,990.40
2018-02-22T11:25:48.688Z,990.47
2018-02-22T11:26:55.415Z,990.48
2018-02-22T11:28:02.230Z,990.53
2018-02-22T11:29:08.956Z,990.43
2018-02-22T11:30:15.744Z,990.44
2018-02-22T11:31:22.480Z,990.35
2018-02-22T11:32:29.195Z,990.40
2018-02-22T11:33:35.904Z,990.36
2018-02-22T11:34:42.662Z,990.37
2018-02-22T11:35:49.464Z,990.46
2018-02-22T11:36:56.179Z,990.25
2018-02-22T11:38:02.914Z,990.31
2018-02-22T11:39:09.632Z,990.24
2018-02-22T11:40:16.375Z,990.29
2018-02-22T11:41:23.327Z,990.32
2018-02-22T11:42:30.035Z,990.30
2018-02-22T11:43:36.786Z,990.21
2018-02-22T11:44:43.529Z,990.24
2018-02-22T11:45:50.273Z,990.27
2018-02-22T11:46:57.114Z,990.12
2018-02-22T11:48:03.841Z,990.29
2018-02-22T11:49:10.571Z,990.34
2018-02-22T11:50:17.397Z,990.18
2018-02-22T11:51:24.119Z,990.16
2018-02-22T11:52:30.859Z,990.26
2018-02-22T11:53:37.569Z,990.12
2018-02-22T11:54:44.315Z,990.15
2018-02-22T11:55:51.103Z,990.23
2018-02-22T11:56:57.792Z,990.18
2018-02-22T11:58:04.561Z,990.12
2018-02-22T11:59:11.268Z,990.13
2018-02-22T12:00:18.111Z,990.10
2018-02-22T12:01:24.839Z,990.07
2018-02-22T12:02:31.536Z,990.05
2018-02-22T12:03:38.256Z,989.90
2018-02-22T12:04:44.963Z,989.92
2018-02-22T12:05:52.080Z,989.86
2018-02-22T12:06:58.839Z,989.86
2018-02-22T12:08:05.563Z,989.93
2018-02-22T12:09:12.387Z,989.89
2018-02-22T12:10:19.115Z,989.93
2018-02-22T12:11:25.899Z,989.98
2018-02-22T12:12:32.603Z,990.08
2018-02-22T12:13:39.448Z,990.02
2018-02-22T12:14:46.171Z,990.05
2018-02-22T12:15:52.932Z,989.88
2018-02-22T12:16:59.683Z,990.00
2018-02-22T12:18:06.396Z,990.19
2018-02-22T12:19:13.175Z,990.04
2018-02-22T12:20:19.874Z,990.03
2018-02-22T12:21:26.618Z,989.99
2018-02-22T12:22:33.362Z,989.87
2018-02-22T12:23:40.457Z,989.97
2018-02-22T12:24:47.227Z,989.98
2018-02-22T12:25:54.047Z,989.94
2018-02-22T12:27:00.764Z,989.95
2018-02-22T12:28:07.525Z,990.04
2018-02-22T12:29:14.258Z,989.95
2018-02-22T12:30:21.161Z,989.99
2018-02-22T12:31:27.914Z,989.99
2018-02-22T12:32:34.643Z,990.00
2018-02-22T12:33:41.448Z,990.06
2018-02-22T12:34:48.208Z,990.06
2018-02-22T12:35:54.920Z,989.99
2018-02-22T12:37:01.682Z,990.00
2018-02-22T12:38:08.531Z,989.92
2018-02-22T12:39:15.255Z,989.94
2018-02-22T12:40:21.999Z,990.00
2018-02-22T12:41:28.784Z,989.92
2018-02-22T12:42:35.524Z,990.11
2018-02-22T12:43:42.339Z,989.97
2018-02-22T12:44:49.020Z,989.93
2018-02-22T12:45:55.776Z,990.07
2018-02-22T12:47:02.568Z,990.03
2018-02-22T12:48:09.428Z,989.98
2018-02-22T12:49:16.201Z,989.94
2018-02-22T12:50:22.987Z,989.93
2018-02-22T12:51:29.707Z,989.83
2018-02-22T12:52:36.492Z,989.87
2018-02-22T12:53:43.248Z,989.78
2018-02-22T12:54:50.108Z,989.86
2018-02-22T12:55:56.930Z,989.82
2018-02-22T12:57:03.639Z,989.80
2018-02-22T12:58:10.409Z,989.81
2018-02-22T12:59:17.138Z,989.67
2018-02-22T13:00:23.832Z,989.76
2018-02-22T13:01:30.681Z,989.88
2018-02-22T13:02:37.400Z,989.79
2018-02-22T13:03:44.177Z,989.76
2018-02-22T13:04:50.908Z,989.81
2018-02-22T13:05:57.608Z,989.78
2018-02-22T13:07:04.594Z,989.68
2018-02-22T13:08:11.304Z,989.66
2018-02-22T13:09:18.024Z,989.65
2018-02-22T13:10:24.708Z,989.56
2018-02-22T13:11:31.496Z,989.62
2018-02-22T13:12:38.458Z,989.50
2018-02-22T13:13:45.295Z,989.60
2018-02-22T13:14:52.124Z,989.55
2018-02-22T13:15:58.923Z,989.75
2018-02-22T13:17:05.729Z,989.77
2018-02-22T13:18:12.484Z,989.59
2018-02-22T13:19:19.276Z,989.48
2018-02-22T13:20:26.004Z,989.61
2018-02-22T13:21:32.791Z,989.55
2018-02-22T13:22:39.475Z,989.60
2018-02-22T13:23:46.230Z,989.55
2018-02-22T13:24:52.979Z,989.67
2018-02-22T13:25:59.672Z,989.61
2018-02-22T13:27:06.390Z,989.50
2018-02-22T13:28:13.148Z,989.47
2018-02-22T13:29:19.840Z,989.52
2018-02-22T13:30:26.888Z,989.44
2018-02-22T13:31:33.624Z,989.60
2018-02-22T13:32:40.355Z,989.68
2018-02-22T13:33:47.175Z,989.50
2018-02-22T13:34:53.970Z,989.56
2018-02-22T13:36:00.698Z,989.58
2018-02-22T13:37:07.576Z,989.58
2018-02-22T13:38:14.444Z,989.46
2018-02-22T13:39:25.220Z,989.39
2018-02-22T13:40:31.956Z,989.47
2018-02-22T13:41:38.945Z,989.43
2018-02-22T13:42:45.643Z,989.46
2018-02-22T13:43:52.363Z,989.43
2018-02-22T13:44:59.210Z,989.36
2018-02-22T13:46:06.088Z,989.42
2018-02-22T13:47:12.823Z,989.41
2018-02-22T13:48:19.558Z,989.31
2018-02-22T13:49:26.259Z,989.37
2018-02-22T13:50:33.172Z,989.33
2018-02-22T13:51:40.073Z,989.19
2018-02-22T13:52:46.893Z,989.22